Angelica, Pennsylvania
Current Conditions -  °F | °C
As of 10:54 PM on Thursday 18 Dec 2014 (Local Time) from KRDG Reporting Station
Overcast Overcast  
Wind Chill: 30°   Ceiling: 3200
Heat Index: 36°   Visibility: 10mi
Dew Point: 25°   Wind: 8mph
Humidity: 64%   Direction: 290°WNW
Pressure: 30.04"   Gusts: NA
Location:  40.2411°N, 75.9752°W
Report Text: KRDG 190354Z AUTO 29007KT 10SM OVC032 02/M04 A3004 RMK AO2 SLP180 T00221039
Loading
Personal Weather Stations






























Interactive Weather Map New forecast layout! Learn more

10-Day Weather Forecast

Advertisements
Track Severe Weather on mobile